Time;durP1;ratioP1;P1;durP2;ratioP2;P2;SDS_P1;SDS_P2;PMS_P1;PMS_P2;Temp;Humidity;BMP_temperature;BMP_pressure;BME280_temperature;BME280_humidity;BME280_pressure;Samples;Min_cycle;Max_cycle;Signal;HPM_P1;HPM_P2
2023/06/02 00:01:53;;;;;;;6.40;3.70;;;;;;;11.18;72.31;102061.75;5008299;28;20060;-72
2023/06/02 00:04:23;;;;;;;10.63;3.92;;;;;;;11.12;72.93;102059.38;5008079;28;20418;-72
2023/06/02 00:06:50;;;;;;;9.25;3.90;;;;;;;11.13;72.13;102062.00;5008038;28;20044;-72
2023/06/02 00:09:15;;;;;;;7.60;3.88;;;;;;;11.09;72.75;102063.13;5007256;28;20069;-72
2023/06/02 00:11:40;;;;;;;8.60;3.63;;;;;;;11.09;71.91;102063.13;5022830;28;20461;-72
2023/06/02 00:14:06;;;;;;;6.35;3.60;;;;;;;11.11;71.91;102063.06;5016800;28;20414;-71
2023/06/02 00:16:43;;;;;;;12.77;3.60;;;;;;;11.11;72.15;102061.22;5007809;28;20406;-71
2023/06/02 00:19:11;;;;;;;7.55;3.80;;;;;;;11.05;72.28;102056.13;5008075;28;20030;-71
2023/06/02 00:21:36;;;;;;;4.90;3.42;;;;;;;11.04;71.62;102064.34;5007885;28;20030;-72
2023/06/02 00:24:02;;;;;;;8.68;4.15;;;;;;;10.98;71.73;102054.69;5007403;28;20051;-72
2023/06/02 00:26:28;;;;;;;7.18;3.42;;;;;;;10.99;72.54;102062.75;5007044;28;20041;-71
2023/06/02 00:28:55;;;;;;;8.77;3.42;;;;;;;10.95;70.60;102058.44;5005844;28;20548;-72
2023/06/02 00:31:21;;;;;;;8.02;3.75;;;;;;;10.89;70.40;102055.19;5020080;28;20041;-72
2023/06/02 00:33:47;;;;;;;11.82;3.28;;;;;;;10.89;70.69;102055.19;5023177;28;20041;-71
2023/06/02 00:36:13;;;;;;;7.85;3.10;;;;;;;10.94;70.90;102056.69;5008726;28;20137;-71
2023/06/02 00:38:39;;;;;;;13.85;3.67;;;;;;;10.97;70.51;102061.09;5005881;28;20656;-72
2023/06/02 00:41:05;;;;;;;8.30;3.40;;;;;;;10.95;70.97;102058.44;5010896;28;20022;-72
2023/06/02 00:43:31;;;;;;;9.75;3.33;;;;;;;10.94;69.95;102053.97;5007607;28;20493;-72
2023/06/02 00:45:56;;;;;;;12.63;3.60;;;;;;;10.97;69.84;102061.09;5020341;28;20030;-72
2023/06/02 00:48:23;;;;;;;10.07;3.38;;;;;;;10.95;70.71;102057.56;5025829;28;20087;-72
2023/06/02 00:50:49;;;;;;;11.25;3.60;;;;;;;10.90;70.05;102055.09;5024956;28;20033;-71
2023/06/02 00:53:15;;;;;;;14.50;3.40;;;;;;;10.84;70.30;102054.56;5027414;28;20037;-71
2023/06/02 00:55:42;;;;;;;8.68;3.38;;;;;;;10.78;70.18;102058.50;5009603;28;20022;-72
2023/06/02 00:58:13;;;;;;;17.27;4.15;;;;;;;10.76;70.83;102056.81;5005280;28;20033;-72
2023/06/02 01:00:41;;;;;;;14.63;4.22;;;;;;;10.70;70.05;102061.63;5007317;28;20278;-71
2023/06/02 01:03:07;;;;;;;12.65;3.70;;;;;;;10.67;69.99;102060.91;5005736;28;20041;-71
2023/06/02 01:05:33;;;;;;;11.07;3.65;;;;;;;10.63;69.97;102060.22;5025397;28;20041;-72
2023/06/02 01:08:02;;;;;;;8.02;3.65;;;;;;;10.58;70.23;102053.22;5027029;28;20031;-71
2023/06/02 01:10:29;;;;;;;12.65;3.92;;;;;;;10.56;70.56;102063.31;5015279;28;20096;-72
2023/06/02 01:12:55;;;;;;;16.48;3.53;;;;;;;10.54;70.29;102059.78;5006355;28;20037;-73
2023/06/02 01:15:21;;;;;;;11.18;4.32;;;;;;;10.53;70.46;102066.19;5011093;28;20037;-72
2023/06/02 01:17:52;;;;;;;14.43;3.92;;;;;;;10.48;69.65;102063.72;5007746;28;20026;-72
2023/06/02 01:20:21;;;;;;;13.10;3.45;;;;;;;10.44;69.84;102070.28;5007681;28;20038;-73
2023/06/02 01:23:08;;;;;;;13.88;4.47;;;;;;;10.46;69.67;102061.09;5007638;28;20519;-72
2023/06/02 01:25:36;;;;;;;9.65;3.47;;;;;;;10.48;69.94;102061.00;5006053;28;20052;-72
2023/06/02 01:28:04;;;;;;;12.65;3.58;;;;;;;10.44;69.87;102059.41;5005010;28;20449;-72
2023/06/02 01:30:31;;;;;;;11.05;4.07;;;;;;;10.45;69.76;102058.47;5007114;28;20055;-72
2023/06/02 01:33:45;;;;;;;12.95;3.63;;;;;;;10.46;70.20;102061.09;5007261;28;20049;-72
2023/06/02 01:36:11;;;;;;;13.25;4.47;;;;;;;10.47;70.08;102059.25;5009445;28;20081;-72
2023/06/02 01:38:39;;;;;;;14.63;4.43;;;;;;;10.48;69.49;102058.28;5005776;28;20093;-72
2023/06/02 01:41:06;;;;;;;10.88;3.70;;;;;;;10.47;69.80;102054.69;5013885;28;20063;-72
2023/06/02 01:43:34;;;;;;;7.90;3.40;;;;;;;10.45;70.14;102053.91;5013331;28;20029;-72
2023/06/02 01:46:00;;;;;;;17.10;3.60;;;;;;;10.45;69.61;102053.03;5015902;28;20030;-72
2023/06/02 01:48:28;;;;;;;9.32;3.35;;;;;;;10.45;70.27;102048.47;5009262;28;20513;-72
2023/06/02 01:50:55;;;;;;;11.65;2.80;;;;;;;10.48;69.78;102051.00;5010350;28;20481;-71
2023/06/02 01:53:23;;;;;;;11.40;3.75;;;;;;;10.51;70.88;102055.41;5010504;28;20042;-72
2023/06/02 01:55:49;;;;;;;11.27;3.95;;;;;;;10.47;69.93;102049.25;5008505;28;20033;-72
2023/06/02 01:58:14;;;;;;;16.42;3.15;;;;;;;10.48;70.21;102050.13;5010873;28;20334;-72
2023/06/02 02:00:39;;;;;;;14.32;4.40;;;;;;;10.46;70.63;102052.06;5017243;28;20112;-72
2023/06/02 02:03:05;;;;;;;7.57;3.60;;;;;;;10.48;70.76;102052.84;5010486;28;20041;-72
2023/06/02 02:05:31;;;;;;;13.50;3.55;;;;;;;10.51;70.66;102049.09;5010149;28;20042;-72
2023/06/02 02:07:57;;;;;;;13.73;3.40;;;;;;;10.51;70.74;102047.25;5010572;28;20128;-71
2023/06/02 02:10:23;;;;;;;8.77;3.40;;;;;;;10.59;70.38;102044.13;5017496;28;20086;-72
2023/06/02 02:12:49;;;;;;;15.32;4.53;;;;;;;10.63;70.75;102043.88;5029627;28;20041;-71
2023/06/02 02:15:15;;;;;;;11.98;3.90;;;;;;;10.65;71.77;102044.66;5011102;28;20030;-72
2023/06/02 02:17:45;;;;;;;8.50;3.75;;;;;;;10.68;70.02;102052.69;5010165;28;20116;-72
2023/06/02 02:20:19;;;;;;;11.65;3.50;;;;;;;10.75;70.89;102046.91;5010158;28;20125;-72
2023/06/02 02:22:45;;;;;;;18.98;3.83;;;;;;;10.75;70.86;102058.66;5015253;28;20041;-72
2023/06/02 02:25:11;;;;;;;9.90;3.60;;;;;;;10.71;70.48;102049.78;5027882;28;20106;-72
2023/06/02 02:27:37;;;;;;;10.90;3.53;;;;;;;10.69;70.80;102048.13;5027751;28;20533;-72
2023/06/02 02:30:05;;;;;;;13.13;3.35;;;;;;;10.69;70.36;102046.25;5025990;28;20409;-72
2023/06/02 02:32:34;;;;;;;11.65;3.50;;;;;;;10.71;70.79;102044.31;5028112;28;20508;-71
2023/06/02 02:34:59;;;;;;;19.48;4.32;;;;;;;10.76;70.59;102049.53;5029354;28;20152;-71
2023/06/02 02:37:25;;;;;;;14.85;3.38;;;;;;;10.71;69.97;102047.03;5028090;28;20531;-71
2023/06/02 02:39:50;;;;;;;9.18;3.38;;;;;;;10.68;71.31;102049.97;5020626;28;20259;-71
2023/06/02 02:42:16;;;;;;;13.40;3.92;;;;;;;10.67;71.15;102048.16;5009268;28;20045;-72
2023/06/02 02:44:41;;;;;;;6.47;3.28;;;;;;;10.67;71.02;102040.00;5009228;28;20042;-72
2023/06/02 02:47:07;;;;;;;10.20;3.35;;;;;;;10.68;71.34;102038.19;5022113;28;20430;-72
2023/06/02 02:49:32;;;;;;;12.70;3.35;;;;;;;10.72;71.68;102037.94;5009454;28;20339;-71
2023/06/02 02:51:58;;;;;;;19.20;4.20;;;;;;;10.76;71.77;102037.75;5007125;28;20033;-72
2023/06/02 02:54:25;;;;;;;13.23;3.90;;;;;;;10.71;71.57;102032.56;5007057;28;20053;-71
2023/06/02 02:56:52;;;;;;;11.15;4.75;;;;;;;10.70;72.00;102034.41;5026794;28;20523;-71
2023/06/02 02:59:17;;;;;;;16.40;4.20;;;;;;;10.66;71.86;102038.25;5026965;28;20014;-71
2023/06/02 03:01:46;;;;;;;11.13;3.72;;;;;;;10.62;71.33;102031.22;5027445;28;20037;-71
2023/06/02 03:04:21;;;;;;;18.73;4.88;;;;;;;10.59;72.00;102034.13;5025156;28;20029;-72
2023/06/02 03:06:48;;;;;;;;;;;;;;;10.63;71.25;102038.44;5010285;28;20095;-72
2023/06/02 03:09:15;;;;;;;12.23;3.85;;;;;;;10.56;72.33;102037.00;5007776;28;20345;-71
2023/06/02 03:11:42;;;;;;;9.60;3.88;;;;;;;10.57;72.84;102037.88;5006719;28;20033;-71
2023/06/02 03:14:08;;;;;;;12.25;3.95;;;;;;;10.59;72.01;102038.69;5007489;28;20049;-72
2023/06/02 03:16:34;;;;;;;12.80;3.97;;;;;;;10.56;71.64;102047.88;5022453;28;20545;-71
2023/06/02 03:19:02;;;;;;;10.32;3.90;;;;;;;10.52;71.16;102051.72;5020310;28;20026;-71
2023/06/02 03:21:31;;;;;;;9.43;3.78;;;;;;;10.46;71.72;102052.94;5007571;28;20514;-72
2023/06/02 03:24:00;;;;;;;12.60;4.65;;;;;;;10.40;72.34;102061.41;5007179;28;20034;-71
2023/06/02 03:26:26;;;;;;;13.35;3.88;;;;;;;10.39;71.97;102058.75;5006772;28;20072;-72
2023/06/02 03:28:54;;;;;;;10.57;3.70;;;;;;;10.39;71.77;102054.19;5007336;28;20442;-72
2023/06/02 03:31:19;;;;;;;15.35;3.90;;;;;;;10.38;72.27;102057.00;5008761;28;20034;-71
2023/06/02 03:33:46;;;;;;;8.85;3.40;;;;;;;10.33;71.88;102053.66;5008058;28;20490;-71
2023/06/02 03:36:13;;;;;;;12.02;3.60;;;;;;;10.31;72.03;102053.75;5008288;28;20544;-71
2023/06/02 03:38:39;;;;;;;11.13;3.55;;;;;;;10.28;71.13;102059.31;5006893;28;20060;-70
2023/06/02 03:41:04;;;;;;;12.85;3.38;;;;;;;10.20;72.26;102053.38;5023553;28;20061;-72
2023/06/02 03:43:30;;;;;;;12.15;4.15;;;;;;;10.22;71.60;102060.50;5022210;28;20401;-71
2023/06/02 03:45:56;;;;;;;14.10;3.53;;;;;;;10.23;72.13;102058.66;5020070;28;20390;-71
2023/06/02 03:48:21;;;;;;;18.52;3.67;;;;;;;10.24;71.15;102057.72;5028429;28;20072;-70
2023/06/02 03:50:46;;;;;;;16.98;3.85;;;;;;;10.17;71.60;102058.97;5017977;28;20026;-70
2023/06/02 03:53:12;;;;;;;16.52;3.78;;;;;;;10.19;71.91;102065.22;5006815;28;20447;-71
2023/06/02 03:55:37;;;;;;;15.82;4.85;;;;;;;10.17;71.94;102065.28;5007218;28;20037;-70
2023/06/02 03:58:03;;;;;;;10.65;3.88;;;;;;;10.15;73.07;102063.59;5006053;28;20034;-71
2023/06/02 04:00:29;;;;;;;12.27;3.55;;;;;;;10.13;72.29;102063.69;5016831;28;20032;-71
2023/06/02 04:02:55;;;;;;;11.85;3.72;;;;;;;10.19;72.22;102071.53;5016354;28;20030;-71
2023/06/02 04:05:21;;;;;;;10.68;3.50;;;;;;;10.20;70.93;102069.69;5005958;28;20088;-71
2023/06/02 04:07:48;;;;;;;13.68;3.28;;;;;;;10.18;71.20;102077.94;4991099;28;20486;-71
2023/06/02 04:10:16;;;;;;;13.65;3.55;;;;;;;10.13;71.19;102073.69;4992734;28;20033;-71
2023/06/02 04:12:42;;;;;;;15.05;3.58;;;;;;;10.13;70.65;102079.13;5007542;28;20026;-71
2023/06/02 04:15:08;;;;;;;8.13;3.28;;;;;;;10.14;70.33;102076.31;5022210;28;20037;-71
2023/06/02 04:17:34;;;;;;;13.35;4.18;;;;;;;10.13;70.54;102077.28;5026639;28;20481;-71
2023/06/02 04:19:59;;;;;;;11.27;4.47;;;;;;;10.14;71.12;102079.03;5026189;28;20117;-71
2023/06/02 04:22:25;;;;;;;10.02;3.03;;;;;;;10.16;70.12;102073.50;5025722;28;20120;-71
2023/06/02 04:24:50;;;;;;;6.43;2.80;;;;;;;10.07;70.05;102076.69;5007549;28;20053;-71
2023/06/02 04:27:17;;;;;;;16.35;4.88;;;;;;;10.01;70.41;102072.44;5005948;28;20041;-71
2023/06/02 04:29:43;;;;;;;8.63;3.97;;;;;;;9.99;70.10;102068.06;5006704;28;20057;-71
2023/06/02 04:32:10;;;;;;;13.85;3.67;;;;;;;9.96;71.13;102072.69;5006601;28;20033;-71
2023/06/02 04:34:35;;;;;;;10.93;3.78;;;;;;;9.97;70.59;102069.00;5013513;28;20021;-70
2023/06/02 04:37:02;;;;;;;13.40;4.28;;;;;;;10.00;70.53;102067.09;5025565;28;20054;-72
2023/06/02 04:39:28;;;;;;;8.88;4.18;;;;;;;10.03;70.74;102069.69;5022737;28;20430;-72
2023/06/02 04:41:56;;;;;;;8.85;3.80;;;;;;;10.03;72.02;102062.41;5033059;28;20034;-71
2023/06/02 04:44:23;;;;;;;8.70;3.13;;;;;;;10.07;72.09;102071.25;5006056;28;20087;-71
2023/06/02 04:46:49;;;;;;;12.88;3.70;;;;;;;10.04;70.92;102075.03;5022554;28;20549;-71
2023/06/02 04:49:15;;;;;;;8.63;2.88;;;;;;;10.00;71.00;102081.56;5023011;28;20125;-71
2023/06/02 04:51:41;;;;;;;10.38;3.17;;;;;;;10.00;70.37;102072.53;5022436;28;20152;-71
2023/06/02 04:54:09;;;;;;;10.57;3.08;;;;;;;10.02;70.19;102070.63;5021567;28;20034;-71
2023/06/02 04:56:39;;;;;;;7.47;3.20;;;;;;;9.98;70.86;102075.34;5020645;28;20129;-71
2023/06/02 04:59:08;;;;;;;4.25;2.25;;;;;;;9.97;70.95;102079.00;5005877;28;20239;-71
2023/06/02 05:01:34;;;;;;;10.07;2.67;;;;;;;10.01;71.45;102086.06;5007655;28;20116;-71
2023/06/02 05:04:00;;;;;;;13.18;2.83;;;;;;;10.08;71.77;102089.34;5007239;28;20488;-71
2023/06/02 05:06:26;;;;;;;8.32;2.58;;;;;;;10.11;70.57;102086.47;5004975;28;20129;-71
2023/06/02 05:08:51;;;;;;;16.15;3.60;;;;;;;10.12;70.78;102096.41;5004709;28;20176;-70
2023/06/02 05:11:17;;;;;;;10.35;2.78;;;;;;;10.13;70.19;102098.16;5005423;28;20399;-71
2023/06/02 05:13:44;;;;;;;5.32;2.53;;;;;;;10.08;69.47;102089.34;4990605;28;20116;-70
2023/06/02 05:16:09;;;;;;;8.43;2.90;;;;;;;10.06;69.68;102091.25;5006200;28;20512;-71
2023/06/02 05:18:35;;;;;;;11.82;2.38;;;;;;;10.02;70.18;102103.25;5005807;28;20026;-70
2023/06/02 05:21:00;;;;;;;6.32;2.42;;;;;;;10.02;69.81;102100.53;5005550;28;20504;-71
2023/06/02 05:23:27;;;;;;;10.95;3.05;;;;;;;10.01;70.17;102086.06;5005569;28;20163;-71
2023/06/02 05:25:52;;;;;;;10.10;2.80;;;;;;;10.07;70.83;102090.28;5017085;28;20215;-71
2023/06/02 05:28:17;;;;;;;10.63;3.47;;;;;;;10.13;70.35;102093.59;5005500;28;20049;-71
2023/06/02 05:30:43;;;;;;;9.43;2.78;;;;;;;10.22;72.56;102097.69;5006070;28;20037;-72
2023/06/02 05:33:09;;;;;;;14.18;3.03;;;;;;;10.31;70.76;102093.66;5005894;28;20038;-72
2023/06/02 05:35:35;;;;;;;12.63;2.83;;;;;;;10.34;69.13;102102.53;5004997;28;20100;-70
2023/06/02 05:38:00;;;;;;;8.57;2.53;;;;;;;10.29;69.96;102093.72;5006564;28;20068;-72
2023/06/02 05:40:26;;;;;;;9.82;2.63;;;;;;;10.30;69.42;102105.47;5013458;28;20033;-72
2023/06/02 05:42:51;;;;;;;14.45;2.83;;;;;;;10.28;68.69;102096.53;5013190;28;20053;-72
2023/06/02 05:45:17;;;;;;;11.23;2.33;;;;;;;10.30;70.33;102092.75;5015268;28;20506;-71
2023/06/02 05:47:46;;;;;;;7.20;2.22;;;;;;;10.41;69.76;102094.94;5005884;28;20101;-72
2023/06/02 05:50:12;;;;;;;5.88;2.40;;;;;;;10.47;69.62;102100.06;5013250;28;20033;-71
2023/06/02 05:52:38;;;;;;;13.27;2.47;;;;;;;10.57;69.62;102103.19;5024866;28;20350;-72
2023/06/02 05:55:05;;;;;;;10.30;2.22;;;;;;;10.62;69.97;102104.69;5011857;28;20033;-71
2023/06/02 05:57:30;;;;;;;7.32;2.35;;;;;;;10.61;69.61;102102.94;5005525;28;20033;-71
2023/06/02 05:59:56;;;;;;;12.88;2.83;;;;;;;10.60;68.47;102111.19;5004692;28;20433;-71
2023/06/02 06:02:22;;;;;;;12.05;2.85;;;;;;;10.53;68.55;102102.44;5004369;28;20085;-71
2023/06/02 06:04:48;;;;;;;8.48;2.20;;;;;;;10.51;69.65;102107.09;5000323;28;20122;-71
2023/06/02 06:07:14;;;;;;;6.10;2.05;;;;;;;10.59;70.04;102104.88;5000314;28;20126;-71
2023/06/02 06:09:40;;;;;;;11.18;2.22;;;;;;;10.61;68.51;102110.22;5004908;28;20030;-71
2023/06/02 06:12:06;;;;;;;6.85;2.13;;;;;;;10.64;67.72;102104.63;5009738;28;20041;-71
2023/06/02 06:14:32;;;;;;;12.75;2.75;;;;;;;10.64;68.57;102097.34;5005042;28;20026;-70
2023/06/02 06:16:57;;;;;;;9.10;3.17;;;;;;;10.67;68.88;102108.03;5024371;28;20048;-72
2023/06/02 06:19:23;;;;;;;14.57;2.85;;;;;;;10.68;67.05;102098.94;5007646;28;20026;-70
2023/06/02 06:21:49;;;;;;;12.13;2.55;;;;;;;10.73;67.99;102105.03;5004074;28;20036;-71
2023/06/02 06:24:14;;;;;;;44.20;5.18;;;;;;;10.81;69.35;102103.72;5009921;28;20073;-71
2023/06/02 06:26:41;;;;;;;12.50;2.45;;;;;;;10.92;68.48;102104.03;5004193;28;20033;-71
2023/06/02 06:29:07;;;;;;;27.42;2.75;;;;;;;10.99;68.76;102105.47;5008215;28;20021;-71
2023/06/02 06:31:33;;;;;;;6.60;2.38;;;;;;;10.98;66.77;102109.16;4992313;28;20501;-71
2023/06/02 06:33:59;;;;;;;13.70;2.75;;;;;;;10.98;67.58;102104.59;5012425;28;20034;-71
2023/06/02 06:36:24;;;;;;;11.77;2.40;;;;;;;11.01;66.95;102105.41;5007377;28;20057;-71
2023/06/02 06:38:50;;;;;;;9.93;2.20;;;;;;;11.04;66.88;102116.97;5007738;28;20038;-71
2023/06/02 06:41:17;;;;;;;12.23;2.67;;;;;;;11.01;67.13;102109.00;5024963;28;20045;-71
2023/06/02 06:43:43;;;;;;;15.07;3.10;;;;;;;11.04;67.32;102113.38;5021124;28;20041;-71
2023/06/02 06:46:14;;;;;;;4.45;2.13;;;;;;;11.05;65.70;102112.41;5007700;28;20172;-71
2023/06/02 06:48:39;;;;;;;9.95;2.50;;;;;;;11.11;68.08;102114.81;5009086;28;20799;-71
2023/06/02 06:51:05;;;;;;;7.15;2.13;;;;;;;11.18;66.77;102118.94;5009416;28;20109;-71
2023/06/02 06:53:30;;;;;;;8.35;2.30;;;;;;;11.08;66.21;102120.44;5008891;28;20038;-71
2023/06/02 06:55:56;;;;;;;9.18;2.67;;;;;;;10.97;67.04;102111.00;5008665;28;20070;-71
2023/06/02 06:58:21;;;;;;;9.82;2.40;;;;;;;11.05;66.01;102117.84;5008755;28;20132;-71
2023/06/02 07:00:46;;;;;;;12.98;2.90;;;;;;;11.02;65.23;102109.88;5008813;28;20041;-72
2023/06/02 07:03:12;;;;;;;9.77;2.53;;;;;;;11.10;66.94;102116.66;5006454;28;20049;-72
2023/06/02 07:05:37;;;;;;;13.93;2.50;;;;;;;11.13;64.81;102105.59;5008282;28;20034;-72
2023/06/02 07:08:02;;;;;;;16.77;2.90;;;;;;;11.18;65.08;102113.50;5008481;28;20034;-71
2023/06/02 07:10:28;;;;;;;15.70;2.90;;;;;;;11.35;67.12;102112.59;5007442;28;20639;-72
2023/06/02 07:12:53;;;;;;;7.88;3.10;;;;;;;11.43;64.93;102111.22;5008289;28;20034;-71
2023/06/02 07:15:20;;;;;;;9.10;2.20;;;;;;;11.65;67.81;102109.97;5015815;28;20041;-71
2023/06/02 07:17:46;;;;;;;9.10;2.30;;;;;;;11.81;67.88;102118.19;5029393;28;20107;-71
2023/06/02 07:20:12;;;;;;;12.70;2.47;;;;;;;11.84;64.21;102115.28;5021601;28;20137;-71
2023/06/02 07:22:38;;;;;;;9.15;2.40;;;;;;;11.96;64.43;102110.00;5009022;28;20056;-71
2023/06/02 07:25:05;;;;;;;10.88;2.42;;;;;;;12.10;63.71;102114.66;5008764;28;20116;-72
2023/06/02 07:27:31;;;;;;;11.70;2.63;;;;;;;12.24;65.63;102113.84;5008162;28;20489;-71
2023/06/02 07:29:56;;;;;;;10.40;2.72;;;;;;;12.23;63.00;102118.44;5012903;28;20040;-71
2023/06/02 07:32:22;;;;;;;11.18;2.40;;;;;;;12.19;63.58;102130.50;5028633;28;20029;-72
2023/06/02 07:34:47;;;;;;;9.38;2.50;;;;;;;12.28;65.60;102134.53;5029479;28;20037;-71
2023/06/02 07:37:13;;;;;;;9.60;2.63;;;;;;;12.13;61.52;102130.88;5028353;28;20091;-71
2023/06/02 07:39:38;;;;;;;9.85;2.70;;;;;;;12.05;62.89;102132.28;5015015;28;20470;-71
2023/06/02 07:42:04;;;;;;;10.02;1.98;;;;;;;12.07;62.26;102124.88;5007477;28;20450;-71
2023/06/02 07:44:30;;;;;;;10.35;2.30;;;;;;;11.99;62.57;102120.75;5017471;28;20425;-71
2023/06/02 07:46:55;;;;;;;14.90;2.53;;;;;;;12.01;62.37;102123.38;5018150;28;20445;-72
2023/06/02 07:49:20;;;;;;;9.93;2.38;;;;;;;12.12;63.11;102122.75;5008245;28;20083;-71
2023/06/02 07:51:46;;;;;;;11.40;2.63;;;;;;;12.09;61.92;102120.22;5017490;28;20483;-71
2023/06/02 07:54:11;;;;;;;8.27;2.55;;;;;;;12.06;62.03;102114.94;5021550;28;20045;-71
2023/06/02 07:56:37;;;;;;;10.68;2.40;;;;;;;12.10;61.82;102122.84;5005932;28;20046;-71
2023/06/02 07:59:02;;;;;;;10.80;2.50;;;;;;;12.21;62.49;102116.75;5007945;28;20072;-72
2023/06/02 08:01:27;;;;;;;9.45;2.05;;;;;;;12.37;63.78;102120.34;5018607;28;20037;-71
2023/06/02 08:03:53;;;;;;;13.63;2.33;;;;;;;12.42;62.25;102117.34;5008724;28;20029;-71
2023/06/02 08:06:19;;;;;;;9.10;2.70;;;;;;;12.41;61.95;102119.19;5007804;28;20458;-72
2023/06/02 08:08:45;;;;;;;9.52;2.42;;;;;;;12.46;61.68;102119.81;5010305;28;20493;-71
2023/06/02 08:11:11;;;;;;;8.30;2.08;;;;;;;12.67;60.59;102108.53;5013741;28;20043;-71
2023/06/02 08:13:36;;;;;;;15.95;2.53;;;;;;;12.74;59.80;102113.53;5017975;28;20124;-71
2023/06/02 08:16:02;;;;;;;11.65;3.78;;;;;;;12.91;62.23;102107.03;5007524;28;20108;-71
2023/06/02 08:18:27;;;;;;;6.38;2.38;;;;;;;13.47;61.77;102107.19;5007668;28;20546;-72
2023/06/02 08:20:52;;;;;;;13.50;3.03;;;;;;;13.65;57.06;102111.47;5007482;28;20036;-71
2023/06/02 08:23:21;;;;;;;15.13;2.65;;;;;;;13.72;59.23;102111.97;5008110;28;20056;-71
2023/06/02 08:25:47;;;;;;;11.85;3.08;;;;;;;13.93;59.00;102105.06;5008011;28;20045;-71
2023/06/02 08:28:13;;;;;;;9.32;2.10;;;;;;;14.62;58.88;102107.75;5006895;28;20533;-71
2023/06/02 08:30:42;;;;;;;10.80;1.98;;;;;;;14.82;54.64;102111.81;5007308;28;20414;-71
2023/06/02 08:33:08;;;;;;;10.27;2.42;;;;;;;14.84;57.45;102110.75;5007903;28;20497;-72
2023/06/02 08:35:36;;;;;;;12.25;2.58;;;;;;;15.18;57.22;102111.97;5007230;28;20085;-71
2023/06/02 08:38:03;;;;;;;12.77;2.92;;;;;;;15.35;54.65;102115.38;5008391;28;20100;-71
2023/06/02 08:40:38;;;;;;;11.55;2.47;;;;;;;15.83;53.76;102110.91;5015093;28;20137;-71
2023/06/02 08:43:06;;;;;;;19.17;3.53;;;;;;;16.27;54.36;102106.66;5006430;28;20033;-71
2023/06/02 08:45:31;;;;;;;6.72;2.10;;;;;;;16.47;53.57;102107.91;5007660;28;20123;-72
2023/06/02 08:47:57;;;;;;;14.40;2.58;;;;;;;15.82;50.31;102110.03;5007515;28;20132;-71
2023/06/02 08:50:27;;;;;;;7.53;2.45;;;;;;;15.54;53.44;102110.28;5007086;28;20053;-71
2023/06/02 08:52:55;;;;;;;11.18;2.45;;;;;;;15.12;52.55;102111.53;5007438;28;20694;-71
2023/06/02 08:55:23;;;;;;;10.40;2.47;;;;;;;15.22;53.85;102108.00;5005901;28;20434;-71
2023/06/02 08:57:49;;;;;;;9.05;2.58;;;;;;;15.29;52.14;102109.34;5007106;28;20041;-71
2023/06/02 09:00:15;;;;;;;13.00;2.95;;;;;;;15.17;53.55;102102.00;5011690;28;20345;-72
2023/06/02 09:02:40;;;;;;;13.55;2.50;;;;;;;14.90;52.27;102098.47;5007140;28;20034;-71
2023/06/02 09:05:07;;;;;;;13.68;3.33;;;;;;;14.60;52.68;102113.34;5016646;28;20370;-71
2023/06/02 09:07:32;;;;;;;13.77;3.22;;;;;;;14.72;55.02;102103.38;5026009;28;20049;-71
2023/06/02 09:09:58;;;;;;;12.80;2.90;;;;;;;15.23;55.09;102100.66;5022387;28;20018;-72
2023/06/02 09:12:23;;;;;;;13.05;2.67;;;;;;;15.67;51.72;102104.81;5006402;28;20038;-72
2023/06/02 09:15:10;;;;;;;10.43;2.50;;;;;;;16.28;55.28;102090.09;5009206;28;20578;-72
2023/06/02 09:17:35;;;;;;;9.63;2.72;;;;;;;16.77;52.36;102101.91;5025182;28;20084;-72
2023/06/02 09:20:11;;;;;;;16.63;2.53;;;;;;;16.43;49.66;102103.63;5025614;28;20033;-72
2023/06/02 09:22:56;;;;;;;12.27;2.67;;;;;;;16.71;53.71;102105.13;5026735;28;20132;-72
2023/06/02 09:25:23;;;;;;;13.48;3.33;;;;;;;16.66;51.92;102097.22;5006628;28;20042;-72
2023/06/02 09:27:51;;;;;;;17.00;2.80;;;;;;;16.81;49.81;102096.06;5006743;28;20451;-72
2023/06/02 09:30:17;;;;;;;12.95;2.78;;;;;;;16.67;49.65;102103.59;5012921;28;20038;-72
2023/06/02 09:32:52;;;;;;;15.27;2.53;;;;;;;16.28;50.66;102098.34;5042199;28;20111;-72
2023/06/02 09:35:34;;;;;;;10.35;2.38;;;;;;;16.03;51.16;102099.31;5011025;28;20501;-71
2023/06/02 09:38:00;;;;;;;7.00;2.72;;;;;;;15.80;51.77;102091.91;5006976;28;20046;-72
2023/06/02 09:40:27;;;;;;;12.15;2.70;;;;;;;15.87;52.24;102090.47;5005767;28;20170;-72
2023/06/02 09:42:53;;;;;;;15.82;3.92;;;;;;;15.75;51.99;102100.50;5014275;28;20063;-72
2023/06/02 09:45:21;;;;;;;9.63;2.97;;;;;;;15.95;55.37;102093.53;5007909;28;20077;-71
2023/06/02 09:47:47;;;;;;;6.35;2.75;;;;;;;16.64;53.79;102081.84;5007147;28;20435;-71
2023/06/02 09:50:38;;;;;;;10.73;2.40;;;;;;;17.24;52.89;102081.63;5006819;28;20149;-71
2023/06/02 09:53:10;;;;;;;12.82;3.00;;;;;;;17.05;52.08;102084.09;5006989;28;20181;-72
2023/06/02 09:55:37;;;;;;;15.82;2.72;;;;;;;16.58;50.18;102095.06;5005920;28;20109;-72
2023/06/02 09:58:04;;;;;;;9.98;3.20;;;;;;;16.19;51.15;102085.31;5006168;28;20394;-71
2023/06/02 10:00:30;;;;;;;9.75;3.05;;;;;;;15.90;52.30;102093.00;5006835;28;20088;-72
2023/06/02 10:02:56;;;;;;;9.85;2.92;;;;;;;15.85;52.99;102086.97;5009392;28;20048;-72
2023/06/02 10:05:22;;;;;;;14.82;3.00;;;;;;;16.48;54.25;102082.19;5010328;28;20117;-72
2023/06/02 10:08:09;;;;;;;10.65;3.10;;;;;;;16.98;52.87;102080.09;5010573;28;20040;-72
2023/06/02 10:10:55;;;;;;;11.52;3.15;;;;;;;17.24;51.78;102078.88;5008494;28;20037;-72
2023/06/02 10:13:38;;;;;;;9.52;3.10;;;;;;;18.11;52.33;102073.53;5009983;28;20041;-70
2023/06/02 10:16:07;;;;;;;11.80;2.83;;;;;;;18.62;51.15;102070.06;5009372;28;20124;-71
2023/06/02 10:19:09;;;;;;;13.45;3.13;;;;;;;18.75;49.27;102084.56;5010636;28;20049;-72
2023/06/02 10:22:03;;;;;;;11.40;2.80;;;;;;;18.50;48.53;102068.38;5008751;28;20884;-71
2023/06/02 10:24:50;;;;;;;9.80;2.63;;;;;;;18.27;49.50;102070.34;5009685;28;20132;-71
2023/06/02 10:27:25;;;;;;;6.78;2.88;;;;;;;18.78;49.11;102088.94;5009850;28;20128;-72
2023/06/02 10:29:52;;;;;;;14.73;3.03;;;;;;;19.05;47.33;102075.47;5009325;28;20036;-72
2023/06/02 10:32:22;;;;;;;13.80;2.65;;;;;;;19.42;47.78;102077.69;5010506;28;20029;-72
2023/06/02 10:34:52;;;;;;;11.57;3.10;;;;;;;19.22;50.91;102079.50;5009972;28;20038;-72
2023/06/02 10:37:19;;;;;;;8.77;2.88;;;;;;;19.54;48.02;102070.19;5009368;28;20120;-71
2023/06/02 10:39:44;;;;;;;9.82;2.65;;;;;;;20.16;48.75;102066.28;5012052;28;20029;-72
2023/06/02 10:42:16;;;;;;;11.75;3.28;;;;;;;19.94;46.17;102081.22;5003577;28;20500;-72
2023/06/02 10:44:42;;;;;;;13.63;3.40;;;;;;;20.05;46.01;102071.94;5023375;28;20034;-71
2023/06/02 10:47:19;;;;;;;25.55;4.43;;;;;;;19.98;45.74;102073.53;5024099;28;20063;-71
2023/06/02 10:50:04;;;;;;;14.27;3.03;;;;;;;19.49;45.51;102069.72;5009267;28;20038;-71
2023/06/02 10:52:31;;;;;;;10.43;3.10;;;;;;;18.75;47.05;102072.69;5008865;28;20046;-72
2023/06/02 10:55:12;;;;;;;11.35;3.38;;;;;;;18.41;49.44;102077.44;5009036;28;20036;-71
2023/06/02 10:57:57;;;;;;;9.27;3.33;;;;;;;18.21;49.54;102079.16;5008920;28;20084;-70
2023/06/02 11:00:32;;;;;;;14.00;3.67;;;;;;;18.45;49.66;102076.16;5010663;28;20049;-71
2023/06/02 11:02:58;;;;;;;15.27;3.22;;;;;;;18.66;49.96;102077.06;5009276;28;20116;-72
2023/06/02 11:05:25;;;;;;;9.43;3.63;;;;;;;18.43;48.91;102078.19;5009314;28;20504;-71
2023/06/02 11:08:12;;;;;;;7.90;3.05;;;;;;;18.22;51.63;102081.75;5008840;28;20038;-71
2023/06/02 11:10:45;;;;;;;11.65;3.42;;;;;;;18.23;50.51;102067.00;5007411;28;20041;-71
2023/06/02 11:13:15;;;;;;;14.00;3.17;;;;;;;18.23;49.90;102068.84;5023879;28;20040;-71
2023/06/02 11:15:57;;;;;;;11.70;3.60;;;;;;;17.95;48.89;102076.72;5014228;28;20048;-71
2023/06/02 11:18:22;;;;;;;10.68;2.95;;;;;;;18.16;52.99;102064.88;5017337;28;20045;-71
2023/06/02 11:20:50;;;;;;;9.60;3.25;;;;;;;18.61;49.27;102065.56;5014480;28;20042;-71
2023/06/02 11:23:19;;;;;;;8.75;3.45;;;;;;;19.07;50.76;102062.44;5016757;28;20037;-71